createdAt,value
2023-05-18T00:01:16.180Z,101950.47
2023-05-18T00:03:42.863Z,101969.59
2023-05-18T00:06:09.898Z,101975.84
2023-05-18T00:08:37.600Z,101981.00
2023-05-18T00:11:05.373Z,101836.53
2023-05-18T00:13:32.237Z,101852.19
2023-05-18T00:15:58.679Z,101956.63
2023-05-18T00:18:26.655Z,101926.06
2023-05-18T00:20:59.936Z,101960.09
2023-05-18T00:23:29.663Z,101881.94
2023-05-18T00:26:00.278Z,101948.94
2023-05-18T00:28:27.003Z,101847.09
2023-05-18T00:30:54.370Z,101990.81
2023-05-18T00:33:21.246Z,101963.75
2023-05-18T00:35:47.782Z,101762.06
2023-05-18T00:38:17.011Z,101991.75
2023-05-18T00:40:43.605Z,101854.25
2023-05-18T00:43:10.578Z,101990.00
2023-05-18T00:45:37.236Z,101984.84
2023-05-18T00:48:04.109Z,101842.19
2023-05-18T00:50:30.751Z,101985.75
2023-05-18T00:52:57.229Z,101877.06
2023-05-18T00:55:23.852Z,101969.47
2023-05-18T00:57:50.408Z,101967.78
2023-05-18T01:00:17.293Z,101994.00
2023-05-18T01:02:45.225Z,101959.09
2023-05-18T01:05:13.278Z,101989.63
2023-05-18T01:07:42.564Z,101837.25
2023-05-18T01:10:11.054Z,101868.63
2023-05-18T01:13:15.528Z,101967.91
2023-05-18T01:15:44.490Z,101991.44
2023-05-18T01:18:21.715Z,101919.13
2023-05-18T01:21:13.391Z,101986.19
2023-05-18T01:24:00.915Z,101939.28
2023-05-18T01:26:32.902Z,101954.25
2023-05-18T01:29:01.328Z,101982.13
2023-05-18T01:31:28.116Z,101917.69
2023-05-18T01:33:54.554Z,101980.53
2023-05-18T01:36:21.219Z,101905.59
2023-05-18T01:38:48.387Z,101964.91
2023-05-18T01:41:29.276Z,101985.88
2023-05-18T01:44:15.781Z,101987.66
2023-05-18T01:47:08.123Z,101945.91
2023-05-18T01:49:58.043Z,101968.66
2023-05-18T01:52:35.155Z,101993.09
2023-05-18T01:55:04.025Z,101952.94
2023-05-18T01:57:32.731Z,101966.06
2023-05-18T02:00:04.577Z,101987.84
2023-05-18T02:02:31.491Z,101955.56
2023-05-18T02:04:57.932Z,101936.41
2023-05-18T02:07:24.349Z,101936.41
2023-05-18T02:09:50.895Z,101893.72
2023-05-18T02:12:17.266Z,101958.25
2023-05-18T02:14:43.652Z,101973.97
2023-05-18T02:17:10.168Z,101921.66
2023-05-18T02:19:38.119Z,101983.56
2023-05-18T02:22:08.112Z,101968.75
2023-05-18T02:24:34.908Z,102007.13
2023-05-18T02:27:01.491Z,101970.50
2023-05-18T02:29:27.946Z,101986.19
2023-05-18T02:31:54.426Z,101987.06
2023-05-18T02:34:22.807Z,101986.19
2023-05-18T02:36:49.375Z,101980.09
2023-05-18T02:39:16.110Z,101966.97
2023-05-18T02:41:42.477Z,101908.50
2023-05-18T02:44:08.941Z,101987.03
2023-05-18T02:46:35.441Z,101979.19
2023-05-18T02:49:01.862Z,101940.78
2023-05-18T02:51:28.408Z,101998.38
2023-05-18T02:53:54.830Z,101990.56
2023-05-18T02:56:21.260Z,101980.94
2023-05-18T02:58:47.760Z,101994.91
2023-05-18T03:01:14.243Z,101963.50
2023-05-18T03:03:42.410Z,101973.97
2023-05-18T03:06:09.403Z,101973.09
2023-05-18T03:08:37.173Z,101960.88
2023-05-18T03:11:04.084Z,101946.03
2023-05-18T03:13:30.459Z,101871.03
2023-05-18T03:15:57.721Z,101932.97
2023-05-18T03:18:25.182Z,101994.91
2023-05-18T03:20:52.101Z,101987.06
2023-05-18T03:23:19.967Z,101963.50
2023-05-18T03:25:46.375Z,101961.75
2023-05-18T03:28:12.772Z,101986.16
2023-05-18T03:30:39.196Z,101981.78
2023-05-18T03:33:05.638Z,101973.06
2023-05-18T03:35:32.645Z,101997.47
2023-05-18T03:37:59.212Z,102007.03
2023-05-18T03:40:26.630Z,101957.28
2023-05-18T03:42:53.116Z,101981.75
2023-05-18T03:45:19.544Z,101996.56
2023-05-18T03:47:46.298Z,101972.16
2023-05-18T03:50:13.092Z,101986.13
2023-05-18T03:52:39.934Z,102005.34
2023-05-18T03:55:06.627Z,101973.94
2023-05-18T03:57:33.273Z,101943.28
2023-05-18T03:59:59.795Z,102001.81
2023-05-18T04:02:26.506Z,102005.31
2023-05-18T04:04:54.854Z,101954.69
2023-05-18T04:07:24.307Z,101847.34
2023-05-18T04:09:56.186Z,101984.34
2023-05-18T04:12:23.001Z,101979.13
2023-05-18T04:14:49.625Z,101957.28
2023-05-18T04:17:17.375Z,101956.47
2023-05-18T04:19:43.916Z,101884.88
2023-05-18T04:22:10.341Z,102017.47
2023-05-18T04:24:37.228Z,101973.81
2023-05-18T04:27:04.016Z,101954.66
2023-05-18T04:29:30.466Z,102017.53
2023-05-18T04:32:03.096Z,101982.66
2023-05-18T04:34:31.271Z,101959.97
2023-05-18T04:37:00.669Z,102003.63
2023-05-18T04:39:27.331Z,101933.84
2023-05-18T04:41:59.456Z,102003.66
2023-05-18T04:44:31.490Z,101928.63
2023-05-18T04:46:59.212Z,102015.00
2023-05-18T04:49:26.121Z,102009.75
2023-05-18T04:51:56.119Z,102026.34
2023-05-18T04:54:24.039Z,101928.63
2023-05-18T04:56:51.599Z,102019.34
2023-05-18T04:59:18.711Z,102035.91
2023-05-18T05:01:46.280Z,102036.78
2023-05-18T05:04:13.277Z,102021.06
2023-05-18T05:06:39.755Z,101873.69
2023-05-18T05:09:06.245Z,101979.16
2023-05-18T05:11:32.687Z,102003.59
2023-05-18T05:13:59.091Z,101983.53
2023-05-18T05:16:25.644Z,101878.03
2023-05-18T05:18:52.142Z,102005.34
2023-05-18T05:21:18.572Z,101887.59
2023-05-18T05:23:45.253Z,101978.25
2023-05-18T05:26:11.665Z,102017.47
2023-05-18T05:28:38.295Z,101990.44
2023-05-18T05:31:04.739Z,102014.88
2023-05-18T05:33:31.252Z,102022.69
2023-05-18T05:35:57.661Z,102014.84
2023-05-18T05:38:24.027Z,102012.25
2023-05-18T05:40:50.554Z,102031.41
2023-05-18T05:43:16.953Z,102022.59
2023-05-18T05:45:43.656Z,102032.22
2023-05-18T05:48:13.370Z,102030.47
2023-05-18T05:50:40.198Z,101942.38
2023-05-18T05:53:06.758Z,101923.22
2023-05-18T05:55:33.418Z,101980.66
2023-05-18T05:57:59.941Z,102019.03
2023-05-18T06:00:28.661Z,102021.53
2023-05-18T06:02:55.074Z,102006.69
2023-05-18T06:05:21.561Z,101991.09
2023-05-18T06:07:48.052Z,102001.44
2023-05-18T06:10:14.504Z,102015.31
2023-05-18T06:12:41.216Z,102036.28
2023-05-18T06:15:08.314Z,102039.69
2023-05-18T06:17:35.135Z,101953.41
2023-05-18T06:20:01.561Z,102014.41
2023-05-18T06:22:27.968Z,102041.31
2023-05-18T06:24:54.353Z,102013.38
2023-05-18T06:27:20.933Z,101961.94
2023-05-18T06:29:47.304Z,102019.44
2023-05-18T06:32:13.985Z,102028.03
2023-05-18T06:34:40.487Z,102034.09
2023-05-18T06:37:06.901Z,101953.19
2023-05-18T06:39:33.317Z,102050.75
2023-05-18T06:41:59.723Z,102047.97
2023-05-18T06:44:26.399Z,102053.88
2023-05-18T06:46:52.796Z,102033.94
2023-05-18T06:49:19.189Z,102033.94
2023-05-18T06:51:45.903Z,102003.34
2023-05-18T06:54:12.958Z,101931.00
2023-05-18T06:56:39.371Z,102017.88
2023-05-18T06:59:05.931Z,102035.28
2023-05-18T07:01:33.652Z,102005.53
2023-05-18T07:04:00.236Z,102030.94
2023-05-18T07:06:28.542Z,102015.19
2023-05-18T07:08:54.973Z,101942.88
2023-05-18T07:11:21.965Z,102013.28
2023-05-18T07:13:48.353Z,102049.81
2023-05-18T07:16:14.797Z,101986.50
2023-05-18T07:18:42.273Z,102004.22
2023-05-18T07:21:08.753Z,102031.81
2023-05-18T07:23:35.233Z,102037.13
2023-05-18T07:26:01.767Z,102054.56
2023-05-18T07:28:28.223Z,102048.97
2023-05-18T07:30:54.580Z,102030.34
2023-05-18T07:33:21.042Z,102039.84
2023-05-18T07:35:47.510Z,102029.28
2023-05-18T07:38:13.874Z,102046.41
2023-05-18T07:40:40.282Z,102049.81
2023-05-18T07:43:06.673Z,101967.91
2023-05-18T07:45:33.234Z,102054.78
2023-05-18T07:48:00.317Z,102026.69
2023-05-18T07:50:26.935Z,101943.06
2023-05-18T07:52:53.287Z,102004.69
2023-05-18T07:55:19.662Z,102003.94
2023-05-18T07:57:46.061Z,102012.59
2023-05-18T08:00:13.106Z,101902.97
2023-05-18T08:02:55.299Z,102040.22
2023-05-18T08:05:22.690Z,102030.28
2023-05-18T08:07:49.540Z,102037.13
2023-05-18T08:10:16.003Z,102033.75
2023-05-18T08:12:42.483Z,102024.31
2023-05-18T08:15:09.565Z,102041.47
2023-05-18T08:17:35.980Z,102024.81
2023-05-18T08:20:04.717Z,102035.75
2023-05-18T08:22:31.156Z,102017.41
2023-05-18T08:25:00.834Z,102019.56
2023-05-18T08:27:29.474Z,102030.59
2023-05-18T08:29:56.341Z,101951.22
2023-05-18T08:32:22.808Z,101931.84
2023-05-18T08:34:51.346Z,102015.06
2023-05-18T08:37:17.853Z,102035.03
2023-05-18T08:39:46.005Z,102019.94
2023-05-18T08:42:17.690Z,101980.03
2023-05-18T08:44:58.573Z,102023.94
2023-05-18T08:47:26.699Z,102021.97
2023-05-18T08:49:56.142Z,101966.75
2023-05-18T08:52:27.884Z,102024.41
2023-05-18T08:54:54.624Z,101907.41
2023-05-18T08:57:33.901Z,101981.78
2023-05-18T09:00:01.848Z,101990.78
2023-05-18T09:02:29.109Z,102029.31
2023-05-18T09:04:56.761Z,101994.88
2023-05-18T09:07:23.476Z,101984.56
2023-05-18T09:09:49.935Z,101942.56
2023-05-18T09:12:18.841Z,101907.41
2023-05-18T09:14:46.500Z,102017.06
2023-05-18T09:17:13.071Z,102004.69
2023-05-18T09:19:39.613Z,101958.25
2023-05-18T09:22:06.664Z,101969.81
2023-05-18T09:24:35.303Z,101915.69
2023-05-18T09:27:02.101Z,101831.34
2023-05-18T09:29:28.509Z,101985.19
2023-05-18T09:31:55.107Z,101925.69
2023-05-18T09:34:21.699Z,101987.97
2023-05-18T09:36:52.950Z,102010.88
2023-05-18T09:39:19.518Z,102010.56
2023-05-18T09:41:46.081Z,102019.19
2023-05-18T09:44:12.698Z,101996.09
2023-05-18T09:46:40.152Z,101999.22
2023-05-18T09:49:08.029Z,102016.69
2023-05-18T09:51:38.581Z,101977.63
2023-05-18T09:54:07.589Z,101963.97
2023-05-18T09:56:38.125Z,102015.63
2023-05-18T09:59:11.041Z,102012.56
2023-05-18T10:01:41.726Z,102001.94
2023-05-18T10:04:08.108Z,101983.34
2023-05-18T10:06:34.562Z,101907.19
2023-05-18T10:09:04.557Z,101827.47
2023-05-18T10:11:32.067Z,101964.63
2023-05-18T10:13:58.781Z,101992.38
2023-05-18T10:16:25.741Z,101973.00
2023-05-18T10:18:55.316Z,101922.50
2023-05-18T10:21:24.595Z,101890.09
2023-05-18T10:23:52.265Z,101983.19
2023-05-18T10:26:22.795Z,101971.88
2023-05-18T10:28:50.454Z,101970.72
2023-05-18T10:31:17.191Z,101982.06
2023-05-18T10:33:44.316Z,101911.78
2023-05-18T10:36:11.478Z,101897.84
2023-05-18T10:38:43.303Z,101955.66
2023-05-18T10:41:11.595Z,101973.84
2023-05-18T10:43:39.322Z,101974.22
2023-05-18T10:46:08.163Z,101954.63
2023-05-18T10:48:39.030Z,101894.97
2023-05-18T10:51:07.382Z,101943.44
2023-05-18T10:53:34.099Z,101940.38
2023-05-18T10:56:01.025Z,101945.34
2023-05-18T10:58:29.388Z,101949.31
2023-05-18T11:00:57.990Z,101961.41
2023-05-18T11:03:26.925Z,101943.97
2023-05-18T11:06:10.275Z,101964.88
2023-05-18T11:09:03.230Z,101872.50
2023-05-18T11:11:30.281Z,101896.66
2023-05-18T11:14:02.256Z,101926.34
2023-05-18T11:16:36.216Z,101947.22
2023-05-18T11:19:07.760Z,101910.41
2023-05-18T11:21:37.069Z,101958.94
2023-05-18T11:24:44.384Z,101939.50
2023-05-18T11:27:16.161Z,101915.59
2023-05-18T11:29:48.132Z,101927.34
2023-05-18T11:32:30.325Z,101923.84
2023-05-18T11:34:58.200Z,101925.41
2023-05-18T11:37:39.968Z,101908.63
2023-05-18T11:40:11.281Z,101925.00
2023-05-18T11:42:38.247Z,101904.25
2023-05-18T11:45:09.163Z,101910.13
2023-05-18T11:47:36.670Z,101857.53
2023-05-18T11:50:07.226Z,101927.22
2023-05-18T11:52:33.683Z,101922.34
2023-05-18T11:55:01.161Z,101896.34
2023-05-18T11:57:33.870Z,101919.88
2023-05-18T12:00:01.735Z,101906.75
2023-05-18T12:02:31.815Z,101845.38
2023-05-18T12:05:00.283Z,101871.59
2023-05-18T12:07:28.358Z,101896.84
2023-05-18T12:10:01.992Z,101904.59
2023-05-18T12:12:28.827Z,101852.78
2023-05-18T12:15:00.356Z,101870.25
2023-05-18T12:17:48.109Z,101909.00
2023-05-18T12:20:20.231Z,101905.34
2023-05-18T12:22:52.806Z,101901.03
2023-05-18T12:25:21.637Z,101881.34
2023-05-18T12:27:48.594Z,101886.63
2023-05-18T12:30:22.062Z,101900.63
2023-05-18T12:32:51.000Z,101871.19
2023-05-18T12:35:21.488Z,101829.38
2023-05-18T12:37:47.945Z,101878.22
2023-05-18T12:40:17.001Z,101879.47
2023-05-18T12:42:57.397Z,101881.72
2023-05-18T12:45:27.663Z,101890.53
2023-05-18T12:47:55.455Z,101851.03
2023-05-18T12:50:23.775Z,101831.50
2023-05-18T12:52:51.088Z,101869.50
2023-05-18T12:55:21.594Z,101868.94
2023-05-18T12:58:20.829Z,101877.69
2023-05-18T13:00:48.418Z,101852.75
2023-05-18T13:03:17.802Z,101851.78
2023-05-18T13:05:46.259Z,101853.22
2023-05-18T13:08:19.016Z,101868.22
2023-05-18T13:10:45.709Z,101864.41
2023-05-18T13:13:16.226Z,101865.97
2023-05-18T13:15:43.898Z,101862.94
2023-05-18T13:18:11.901Z,101788.50
2023-05-18T13:20:50.985Z,101856.97
2023-05-18T13:23:19.539Z,101854.25
2023-05-18T13:25:48.900Z,101732.56
2023-05-18T13:28:17.091Z,101848.41
2023-05-18T13:30:45.061Z,101820.53
2023-05-18T13:33:12.010Z,101801.09
2023-05-18T13:35:41.714Z,101839.00
2023-05-18T13:38:13.195Z,101695.56
2023-05-18T13:40:40.366Z,101832.56
2023-05-18T13:43:06.820Z,101812.53
2023-05-18T13:45:35.834Z,101831.50
2023-05-18T13:48:09.261Z,101807.41
2023-05-18T13:50:36.728Z,101807.34
2023-05-18T13:53:03.331Z,101814.06
2023-05-18T13:55:30.012Z,101821.16
2023-05-18T13:57:56.861Z,101801.81
2023-05-18T14:00:23.255Z,101800.56
2023-05-18T14:02:49.881Z,101817.03
2023-05-18T14:05:16.506Z,101804.59
2023-05-18T14:07:43.889Z,101825.78
2023-05-18T14:10:12.208Z,101801.09
2023-05-18T14:12:39.301Z,101813.59
2023-05-18T14:15:06.259Z,101780.03
2023-05-18T14:17:32.855Z,101789.50
2023-05-18T14:19:59.715Z,101784.91
2023-05-18T14:22:26.486Z,101806.31
2023-05-18T14:24:53.567Z,101798.78
2023-05-18T14:27:20.515Z,101806.69
2023-05-18T14:29:47.620Z,101794.66
2023-05-18T14:32:14.285Z,101794.25
2023-05-18T14:34:43.732Z,101759.97
2023-05-18T14:37:10.168Z,101758.66
2023-05-18T14:39:37.695Z,101698.09
2023-05-18T14:42:04.485Z,101785.66
2023-05-18T14:44:30.961Z,101792.50
2023-05-18T14:46:57.528Z,101794.16
2023-05-18T14:49:23.925Z,101765.00
2023-05-18T14:51:50.525Z,101732.72
2023-05-18T14:54:18.913Z,101778.09
2023-05-18T14:56:45.581Z,101783.69
2023-05-18T14:59:11.991Z,101782.00
2023-05-18T15:01:38.425Z,101783.53
2023-05-18T15:04:05.083Z,101773.94
2023-05-18T15:06:31.566Z,101788.91
2023-05-18T15:08:57.957Z,101766.13
2023-05-18T15:11:24.328Z,101783.94
2023-05-18T15:13:50.800Z,101747.38
2023-05-18T15:16:19.578Z,101772.22
2023-05-18T15:18:46.559Z,101777.88
2023-05-18T15:21:13.060Z,101789.38
2023-05-18T15:23:39.497Z,101780.88
2023-05-18T15:26:08.233Z,101769.94
2023-05-18T15:28:35.470Z,101785.06
2023-05-18T15:31:01.882Z,101789.47
2023-05-18T15:33:28.539Z,101747.53
2023-05-18T15:35:54.969Z,101785.47
2023-05-18T15:38:21.442Z,101724.44
2023-05-18T15:40:47.929Z,101784.34
2023-05-18T15:43:14.463Z,101695.69
2023-05-18T15:45:40.865Z,101775.53
2023-05-18T15:48:07.348Z,101767.25
2023-05-18T15:50:33.798Z,101763.84
2023-05-18T15:53:00.196Z,101769.25
2023-05-18T15:55:26.582Z,101744.03
2023-05-18T15:57:52.943Z,101749.34
2023-05-18T16:00:22.128Z,101751.94
2023-05-18T16:02:48.727Z,101743.75
2023-05-18T16:05:15.247Z,101676.38
2023-05-18T16:07:42.211Z,101729.88
2023-05-18T16:10:08.870Z,101730.88
2023-05-18T16:12:35.260Z,101723.28
2023-05-18T16:15:01.669Z,101753.03
2023-05-18T16:17:28.413Z,101734.50
2023-05-18T16:19:54.921Z,101734.66
2023-05-18T16:22:21.305Z,101752.28
2023-05-18T16:24:47.678Z,101746.00
2023-05-18T16:27:14.052Z,101718.44
2023-05-18T16:29:41.428Z,101723.44
2023-05-18T16:32:08.325Z,101726.06
2023-05-18T16:34:34.692Z,101723.13
2023-05-18T16:37:01.089Z,101734.69
2023-05-18T16:39:27.475Z,101680.53
2023-05-18T16:41:53.890Z,101737.25
2023-05-18T16:44:20.500Z,101727.06
2023-05-18T16:46:46.919Z,101720.00
2023-05-18T16:49:13.419Z,101726.75
2023-05-18T16:51:40.078Z,101747.03
2023-05-18T16:54:06.858Z,101717.84
2023-05-18T16:56:33.297Z,101732.25
2023-05-18T16:58:59.696Z,101738.88
2023-05-18T17:01:28.121Z,101733.97
2023-05-18T17:03:54.851Z,101743.06
2023-05-18T17:06:21.380Z,101706.03
2023-05-18T17:08:47.770Z,101718.03
2023-05-18T17:11:14.335Z,101716.03
2023-05-18T17:13:40.747Z,101753.59
2023-05-18T17:16:07.263Z,101704.53
2023-05-18T17:18:33.665Z,101736.63
2023-05-18T17:21:00.046Z,101707.19
2023-05-18T17:23:26.571Z,101686.75
2023-05-18T17:26:00.845Z,101713.66
2023-05-18T17:28:31.931Z,101738.03
2023-05-18T17:30:58.360Z,101707.53
2023-05-18T17:33:24.898Z,101716.34
2023-05-18T17:35:51.467Z,101749.84
2023-05-18T17:38:17.933Z,101734.66
2023-05-18T17:40:44.295Z,101753.34
2023-05-18T17:43:11.116Z,101729.47
2023-05-18T17:45:37.541Z,101743.06
2023-05-18T17:48:04.300Z,101714.28
2023-05-18T17:50:31.144Z,101729.94
2023-05-18T17:52:58.314Z,101730.25
2023-05-18T17:55:24.693Z,101742.91
2023-05-18T17:57:51.571Z,101699.41
2023-05-18T18:00:18.552Z,101629.00
2023-05-18T18:02:45.035Z,101641.94
2023-05-18T18:05:11.591Z,101616.00
2023-05-18T18:07:39.186Z,101730.13
2023-05-18T18:10:06.987Z,101696.72
2023-05-18T18:12:33.389Z,101718.44
2023-05-18T18:14:59.773Z,101659.63
2023-05-18T18:17:26.246Z,101724.47
2023-05-18T18:19:52.694Z,101718.16
2023-05-18T18:22:19.184Z,101710.28
2023-05-18T18:24:45.647Z,101750.59
2023-05-18T18:27:12.017Z,101752.59
2023-05-18T18:29:38.434Z,101747.47
2023-05-18T18:32:05.037Z,101742.53
2023-05-18T18:34:31.431Z,101692.50
2023-05-18T18:36:58.750Z,101720.84
2023-05-18T18:39:25.145Z,101691.88
2023-05-18T18:41:51.538Z,101751.06
2023-05-18T18:44:17.908Z,101721.78
2023-05-18T18:46:45.223Z,101726.25
2023-05-18T18:49:11.728Z,101657.47
2023-05-18T18:51:38.126Z,101717.75
2023-05-18T18:54:04.690Z,101600.25
2023-05-18T18:56:31.461Z,101583.66
2023-05-18T18:58:57.956Z,101748.78
2023-05-18T19:01:24.428Z,101624.31
2023-05-18T19:03:52.777Z,101747.91
2023-05-18T19:06:20.130Z,101753.44
2023-05-18T19:08:46.549Z,101672.50
2023-05-18T19:11:12.956Z,101772.19
2023-05-18T19:13:39.378Z,101723.28
2023-05-18T19:16:06.350Z,101761.81
2023-05-18T19:18:32.765Z,101770.69
2023-05-18T19:21:01.164Z,101756.13
2023-05-18T19:23:27.518Z,101762.31
2023-05-18T19:25:54.746Z,101778.13
2023-05-18T19:28:21.178Z,101771.81
2023-05-18T19:30:48.130Z,101751.03
2023-05-18T19:33:14.657Z,101735.25
2023-05-18T19:35:41.199Z,101687.44
2023-05-18T19:38:07.576Z,101762.28
2023-05-18T19:40:33.955Z,101799.28
2023-05-18T19:43:01.472Z,101766.25
2023-05-18T19:45:27.941Z,101713.69
2023-05-18T19:47:54.528Z,101753.88
2023-05-18T19:50:21.195Z,101788.97
2023-05-18T19:52:49.441Z,101815.38
2023-05-18T19:55:16.454Z,101785.31
2023-05-18T19:57:42.985Z,101769.00
2023-05-18T20:00:11.017Z,101778.56
2023-05-18T20:02:37.793Z,101780.94
2023-05-18T20:05:06.681Z,101792.28
2023-05-18T20:07:33.923Z,101816.69
2023-05-18T20:10:00.327Z,101797.97
2023-05-18T20:12:28.286Z,101733.28
2023-05-18T20:14:54.775Z,101774.09
2023-05-18T20:17:21.547Z,101768.63
2023-05-18T20:19:50.986Z,101823.75
2023-05-18T20:22:17.892Z,101776.31
2023-05-18T20:24:44.981Z,101837.09
2023-05-18T20:27:15.095Z,101840.72
2023-05-18T20:29:41.680Z,101796.59
2023-05-18T20:32:08.292Z,101790.63
2023-05-18T20:34:34.756Z,101830.88
2023-05-18T20:37:01.150Z,101844.63
2023-05-18T20:39:28.942Z,101811.22
2023-05-18T20:41:55.432Z,101822.63
2023-05-18T20:44:23.332Z,101842.13
2023-05-18T20:46:52.827Z,101825.19
2023-05-18T20:49:21.633Z,101843.81
2023-05-18T20:51:49.285Z,101833.53
2023-05-18T20:54:17.731Z,101833.22
2023-05-18T20:56:44.505Z,101850.97
2023-05-18T20:59:12.522Z,101830.53
2023-05-18T21:01:39.914Z,101841.09
2023-05-18T21:04:06.686Z,101824.91
2023-05-18T21:06:34.240Z,101838.19
2023-05-18T21:09:01.403Z,101848.81
2023-05-18T21:11:28.025Z,101856.84
2023-05-18T21:13:54.380Z,101857.53
2023-05-18T21:16:20.782Z,101823.19
2023-05-18T21:18:47.396Z,101841.13
2023-05-18T21:21:13.766Z,101813.97
2023-05-18T21:23:40.145Z,101840.75
2023-05-18T21:26:06.527Z,101838.22
2023-05-18T21:28:32.900Z,101860.31
2023-05-18T21:30:59.328Z,101862.13
2023-05-18T21:33:25.953Z,101829.13
2023-05-18T21:35:52.475Z,101707.75
2023-05-18T21:38:18.894Z,101785.13
2023-05-18T21:40:46.592Z,101838.09
2023-05-18T21:43:12.981Z,101867.13
2023-05-18T21:45:39.529Z,101862.81
2023-05-18T21:48:06.291Z,101808.94
2023-05-18T21:50:35.851Z,101810.97
2023-05-18T21:53:05.493Z,101856.13
2023-05-18T21:55:32.260Z,101850.16
2023-05-18T21:57:59.185Z,101828.59
2023-05-18T22:00:26.753Z,101845.72
2023-05-18T22:02:53.136Z,101854.47
2023-05-18T22:05:19.631Z,101830.47
2023-05-18T22:07:46.081Z,101845.00
2023-05-18T22:10:12.596Z,101832.19
2023-05-18T22:12:40.959Z,101835.78
2023-05-18T22:15:08.596Z,101827.91
2023-05-18T22:17:36.528Z,101827.84
2023-05-18T22:20:05.880Z,101816.19
2023-05-18T22:22:32.282Z,101820.50
2023-05-18T22:24:58.626Z,101804.69
2023-05-18T22:27:25.082Z,101825.84
2023-05-18T22:29:51.687Z,101842.38
2023-05-18T22:32:19.199Z,101680.56
2023-05-18T22:34:45.647Z,101715.53
2023-05-18T22:37:13.149Z,101757.00
2023-05-18T22:39:39.542Z,101756.94
2023-05-18T22:42:06.184Z,101818.16
2023-05-18T22:44:32.533Z,101856.28
2023-05-18T22:46:59.102Z,101825.44
2023-05-18T22:49:26.112Z,101822.72
2023-05-18T22:51:52.580Z,101813.16
2023-05-18T22:54:18.976Z,101849.88
2023-05-18T22:56:45.385Z,101847.41
2023-05-18T22:59:11.893Z,101825.84
2023-05-18T23:01:38.517Z,101823.84
2023-05-18T23:04:05.125Z,101848.19
2023-05-18T23:06:31.653Z,101849.09
2023-05-18T23:09:00.397Z,101868.34
2023-05-18T23:11:28.420Z,101866.63
2023-05-18T23:13:54.999Z,101783.59
2023-05-18T23:16:22.543Z,101863.44
2023-05-18T23:18:50.544Z,101848.00
2023-05-18T23:21:17.088Z,101848.00
2023-05-18T23:23:45.516Z,101830.69
2023-05-18T23:26:12.593Z,101845.56
2023-05-18T23:28:39.106Z,101768.34
2023-05-18T23:31:05.559Z,101825.69
2023-05-18T23:33:32.402Z,101835.50
2023-05-18T23:36:02.512Z,101841.72
2023-05-18T23:38:34.944Z,101832.13
2023-05-18T23:41:03.385Z,101810.50
2023-05-18T23:43:30.394Z,101776.59
2023-05-18T23:45:59.532Z,101800.97
2023-05-18T23:48:27.499Z,101827.06
2023-05-18T23:50:59.705Z,101837.41
2023-05-18T23:53:27.688Z,101821.09
2023-05-18T23:55:56.680Z,101831.47
2023-05-18T23:58:26.100Z,101837.50
